sensor_id;sensor_type;location;lat;lon;timestamp;P1;durP1;ratioP1;P2;durP2;ratioP2
12681;SDS011;6405;59.208;18.216;2023-01-08T00:01:15;36.07;;;14.13;;
12681;SDS011;6405;59.208;18.216;2023-01-08T00:03:42;32.70;;;15.27;;
12681;SDS011;6405;59.208;18.216;2023-01-08T00:06:12;31.07;;;15.77;;
12681;SDS011;6405;59.208;18.216;2023-01-08T00:08:40;35.60;;;15.40;;
12681;SDS011;6405;59.208;18.216;2023-01-08T00:11:09;33.73;;;13.27;;
12681;SDS011;6405;59.208;18.216;2023-01-08T00:13:37;27.70;;;14.30;;
12681;SDS011;6405;59.208;18.216;2023-01-08T00:16:07;20.53;;;9.30;;
12681;SDS011;6405;59.208;18.216;2023-01-08T00:18:37;34.73;;;14.80;;
12681;SDS011;6405;59.208;18.216;2023-01-08T00:21:04;34.23;;;13.57;;
12681;SDS011;6405;59.208;18.216;2023-01-08T00:23:33;34.93;;;15.33;;
12681;SDS011;6405;59.208;18.216;2023-01-08T00:26:02;36.37;;;16.40;;
12681;SDS011;6405;59.208;18.216;2023-01-08T00:28:31;28.03;;;14.73;;
12681;SDS011;6405;59.208;18.216;2023-01-08T00:31:04;30.80;;;13.97;;
12681;SDS011;6405;59.208;18.216;2023-01-08T00:33:35;31.57;;;14.50;;
12681;SDS011;6405;59.208;18.216;2023-01-08T00:36:06;31.83;;;14.57;;
12681;SDS011;6405;59.208;18.216;2023-01-08T00:38:34;34.23;;;14.37;;
12681;SDS011;6405;59.208;18.216;2023-01-08T00:41:02;32.10;;;13.80;;
12681;SDS011;6405;59.208;18.216;2023-01-08T00:43:30;26.53;;;12.90;;
12681;SDS011;6405;59.208;18.216;2023-01-08T00:45:57;33.43;;;13.07;;
12681;SDS011;6405;59.208;18.216;2023-01-08T00:48:23;31.47;;;13.27;;
12681;SDS011;6405;59.208;18.216;2023-01-08T00:50:50;33.13;;;12.80;;
12681;SDS011;6405;59.208;18.216;2023-01-08T00:53:18;27.23;;;12.27;;
12681;SDS011;6405;59.208;18.216;2023-01-08T00:55:46;27.17;;;11.97;;
12681;SDS011;6405;59.208;18.216;2023-01-08T00:58:12;21.80;;;10.03;;
12681;SDS011;6405;59.208;18.216;2023-01-08T01:00:40;22.47;;;10.17;;
12681;SDS011;6405;59.208;18.216;2023-01-08T01:03:05;19.50;;;9.30;;
12681;SDS011;6405;59.208;18.216;2023-01-08T01:05:33;19.13;;;10.40;;
12681;SDS011;6405;59.208;18.216;2023-01-08T01:08:00;22.37;;;9.80;;
12681;SDS011;6405;59.208;18.216;2023-01-08T01:10:27;16.00;;;9.37;;
12681;SDS011;6405;59.208;18.216;2023-01-08T01:12:54;14.23;;;7.90;;
12681;SDS011;6405;59.208;18.216;2023-01-08T01:15:22;19.93;;;8.03;;
12681;SDS011;6405;59.208;18.216;2023-01-08T01:17:49;18.53;;;9.00;;
12681;SDS011;6405;59.208;18.216;2023-01-08T01:20:16;15.77;;;8.60;;
12681;SDS011;6405;59.208;18.216;2023-01-08T01:22:42;14.70;;;8.97;;
12681;SDS011;6405;59.208;18.216;2023-01-08T01:25:09;15.07;;;8.27;;
12681;SDS011;6405;59.208;18.216;2023-01-08T01:27:36;15.90;;;8.40;;
12681;SDS011;6405;59.208;18.216;2023-01-08T01:30:03;16.07;;;8.10;;
12681;SDS011;6405;59.208;18.216;2023-01-08T01:32:30;17.70;;;9.63;;
12681;SDS011;6405;59.208;18.216;2023-01-08T01:34:58;16.83;;;8.63;;
12681;SDS011;6405;59.208;18.216;2023-01-08T01:37:26;11.87;;;5.93;;
12681;SDS011;6405;59.208;18.216;2023-01-08T01:39:54;21.50;;;10.10;;
12681;SDS011;6405;59.208;18.216;2023-01-08T01:42:22;11.17;;;5.90;;
12681;SDS011;6405;59.208;18.216;2023-01-08T01:45:23;15.03;;;7.27;;
12681;SDS011;6405;59.208;18.216;2023-01-08T01:48:00;19.53;;;9.50;;
12681;SDS011;6405;59.208;18.216;2023-01-08T01:50:35;23.73;;;8.20;;
12681;SDS011;6405;59.208;18.216;2023-01-08T01:53:28;19.33;;;7.60;;
12681;SDS011;6405;59.208;18.216;2023-01-08T01:55:56;17.10;;;8.57;;
12681;SDS011;6405;59.208;18.216;2023-01-08T01:58:26;13.80;;;7.53;;
12681;SDS011;6405;59.208;18.216;2023-01-08T02:00:56;15.20;;;7.47;;
12681;SDS011;6405;59.208;18.216;2023-01-08T02:03:33;14.70;;;8.27;;
12681;SDS011;6405;59.208;18.216;2023-01-08T02:11:37;14.93;;;7.57;;
12681;SDS011;6405;59.208;18.216;2023-01-08T02:14:59;13.97;;;6.57;;
12681;SDS011;6405;59.208;18.216;2023-01-08T02:17:48;13.90;;;6.80;;
12681;SDS011;6405;59.208;18.216;2023-01-08T02:20:30;10.60;;;5.53;;
12681;SDS011;6405;59.208;18.216;2023-01-08T02:28:51;9.33;;;5.20;;
12681;SDS011;6405;59.208;18.216;2023-01-08T02:31:25;14.00;;;5.23;;
12681;SDS011;6405;59.208;18.216;2023-01-08T02:33:54;9.77;;;5.37;;
12681;SDS011;6405;59.208;18.216;2023-01-08T02:41:35;15.37;;;5.90;;
12681;SDS011;6405;59.208;18.216;2023-01-08T02:44:17;10.60;;;5.10;;
12681;SDS011;6405;59.208;18.216;2023-01-08T02:46:48;11.27;;;5.00;;
12681;SDS011;6405;59.208;18.216;2023-01-08T02:49:16;11.23;;;5.80;;
12681;SDS011;6405;59.208;18.216;2023-01-08T02:51:50;7.33;;;4.33;;
12681;SDS011;6405;59.208;18.216;2023-01-08T02:54:23;8.17;;;4.73;;
12681;SDS011;6405;59.208;18.216;2023-01-08T02:57:07;8.30;;;3.93;;
12681;SDS011;6405;59.208;18.216;2023-01-08T02:59:36;9.40;;;4.13;;
12681;SDS011;6405;59.208;18.216;2023-01-08T03:02:06;7.00;;;4.13;;
12681;SDS011;6405;59.208;18.216;2023-01-08T03:04:35;8.80;;;4.07;;
12681;SDS011;6405;59.208;18.216;2023-01-08T03:07:05;7.77;;;4.47;;
12681;SDS011;6405;59.208;18.216;2023-01-08T03:09:32;8.10;;;4.07;;
12681;SDS011;6405;59.208;18.216;2023-01-08T03:11:59;8.23;;;4.30;;
12681;SDS011;6405;59.208;18.216;2023-01-08T03:14:42;8.40;;;4.10;;
12681;SDS011;6405;59.208;18.216;2023-01-08T03:17:29;7.77;;;4.10;;
12681;SDS011;6405;59.208;18.216;2023-01-08T03:20:23;5.90;;;4.20;;
12681;SDS011;6405;59.208;18.216;2023-01-08T03:22:51;7.07;;;3.90;;
12681;SDS011;6405;59.208;18.216;2023-01-08T03:25:21;7.30;;;3.80;;
12681;SDS011;6405;59.208;18.216;2023-01-08T03:27:52;5.47;;;3.67;;
12681;SDS011;6405;59.208;18.216;2023-01-08T03:30:21;6.53;;;3.33;;
12681;SDS011;6405;59.208;18.216;2023-01-08T03:32:49;6.10;;;3.60;;
12681;SDS011;6405;59.208;18.216;2023-01-08T03:35:19;6.17;;;3.67;;
12681;SDS011;6405;59.208;18.216;2023-01-08T03:37:49;5.47;;;3.80;;
12681;SDS011;6405;59.208;18.216;2023-01-08T03:40:28;7.70;;;3.77;;
12681;SDS011;6405;59.208;18.216;2023-01-08T03:42:59;6.10;;;3.30;;
12681;SDS011;6405;59.208;18.216;2023-01-08T03:45:29;6.27;;;3.50;;
12681;SDS011;6405;59.208;18.216;2023-01-08T03:47:57;5.00;;;3.67;;
12681;SDS011;6405;59.208;18.216;2023-01-08T03:50:27;6.57;;;3.57;;
12681;SDS011;6405;59.208;18.216;2023-01-08T03:52:58;7.77;;;3.40;;
12681;SDS011;6405;59.208;18.216;2023-01-08T03:55:26;6.03;;;3.30;;
12681;SDS011;6405;59.208;18.216;2023-01-08T03:57:53;7.90;;;4.20;;
12681;SDS011;6405;59.208;18.216;2023-01-08T04:00:21;7.33;;;3.30;;
12681;SDS011;6405;59.208;18.216;2023-01-08T04:03:02;4.77;;;2.93;;
12681;SDS011;6405;59.208;18.216;2023-01-08T04:05:30;7.83;;;3.60;;
12681;SDS011;6405;59.208;18.216;2023-01-08T04:07:58;5.03;;;2.47;;
12681;SDS011;6405;59.208;18.216;2023-01-08T04:10:26;5.40;;;2.77;;
12681;SDS011;6405;59.208;18.216;2023-01-08T04:12:52;5.17;;;2.97;;
12681;SDS011;6405;59.208;18.216;2023-01-08T04:15:19;8.20;;;3.20;;
12681;SDS011;6405;59.208;18.216;2023-01-08T04:17:45;6.60;;;2.90;;
12681;SDS011;6405;59.208;18.216;2023-01-08T04:20:12;6.13;;;2.53;;
12681;SDS011;6405;59.208;18.216;2023-01-08T04:22:38;6.17;;;2.73;;
12681;SDS011;6405;59.208;18.216;2023-01-08T04:25:04;5.67;;;2.60;;
12681;SDS011;6405;59.208;18.216;2023-01-08T04:27:30;7.10;;;2.33;;
12681;SDS011;6405;59.208;18.216;2023-01-08T04:29:57;5.77;;;3.10;;
12681;SDS011;6405;59.208;18.216;2023-01-08T04:32:26;5.40;;;2.47;;
12681;SDS011;6405;59.208;18.216;2023-01-08T04:34:54;5.50;;;2.63;;
12681;SDS011;6405;59.208;18.216;2023-01-08T04:37:21;3.83;;;2.50;;
12681;SDS011;6405;59.208;18.216;2023-01-08T04:39:48;4.47;;;2.50;;
12681;SDS011;6405;59.208;18.216;2023-01-08T04:42:14;6.00;;;2.20;;
12681;SDS011;6405;59.208;18.216;2023-01-08T04:44:40;5.03;;;2.30;;
12681;SDS011;6405;59.208;18.216;2023-01-08T04:47:08;3.53;;;1.63;;
12681;SDS011;6405;59.208;18.216;2023-01-08T04:49:35;4.20;;;2.53;;
12681;SDS011;6405;59.208;18.216;2023-01-08T04:52:02;3.80;;;1.90;;
12681;SDS011;6405;59.208;18.216;2023-01-08T04:54:29;3.37;;;2.40;;
12681;SDS011;6405;59.208;18.216;2023-01-08T04:56:58;2.17;;;1.37;;
12681;SDS011;6405;59.208;18.216;2023-01-08T04:59:26;4.23;;;2.57;;
12681;SDS011;6405;59.208;18.216;2023-01-08T05:01:53;4.53;;;2.17;;
12681;SDS011;6405;59.208;18.216;2023-01-08T05:04:22;3.70;;;1.80;;
12681;SDS011;6405;59.208;18.216;2023-01-08T05:06:49;3.77;;;2.23;;
12681;SDS011;6405;59.208;18.216;2023-01-08T05:09:15;4.23;;;2.13;;
12681;SDS011;6405;59.208;18.216;2023-01-08T05:11:41;5.07;;;2.20;;
12681;SDS011;6405;59.208;18.216;2023-01-08T05:14:08;3.40;;;2.30;;
12681;SDS011;6405;59.208;18.216;2023-01-08T05:16:35;3.67;;;2.07;;
12681;SDS011;6405;59.208;18.216;2023-01-08T05:19:01;3.83;;;2.13;;
12681;SDS011;6405;59.208;18.216;2023-01-08T05:21:28;4.13;;;2.07;;
12681;SDS011;6405;59.208;18.216;2023-01-08T05:23:54;4.13;;;2.00;;
12681;SDS011;6405;59.208;18.216;2023-01-08T05:26:19;4.33;;;2.63;;
12681;SDS011;6405;59.208;18.216;2023-01-08T05:28:46;3.63;;;2.60;;
12681;SDS011;6405;59.208;18.216;2023-01-08T05:31:11;7.23;;;2.60;;
12681;SDS011;6405;59.208;18.216;2023-01-08T05:33:39;4.20;;;2.17;;
12681;SDS011;6405;59.208;18.216;2023-01-08T05:36:07;5.23;;;2.80;;
12681;SDS011;6405;59.208;18.216;2023-01-08T05:38:36;6.77;;;2.93;;
12681;SDS011;6405;59.208;18.216;2023-01-08T05:41:03;5.17;;;2.80;;
12681;SDS011;6405;59.208;18.216;2023-01-08T05:43:31;4.40;;;2.63;;
12681;SDS011;6405;59.208;18.216;2023-01-08T05:45:58;6.13;;;2.83;;
12681;SDS011;6405;59.208;18.216;2023-01-08T05:48:25;6.23;;;2.67;;
12681;SDS011;6405;59.208;18.216;2023-01-08T05:50:53;5.27;;;2.63;;
12681;SDS011;6405;59.208;18.216;2023-01-08T05:53:20;3.13;;;2.17;;
12681;SDS011;6405;59.208;18.216;2023-01-08T05:55:49;3.70;;;2.30;;
12681;SDS011;6405;59.208;18.216;2023-01-08T05:58:15;2.90;;;1.57;;
12681;SDS011;6405;59.208;18.216;2023-01-08T06:00:45;4.47;;;2.53;;
12681;SDS011;6405;59.208;18.216;2023-01-08T06:03:13;3.33;;;1.67;;
12681;SDS011;6405;59.208;18.216;2023-01-08T06:05:40;3.30;;;1.70;;
12681;SDS011;6405;59.208;18.216;2023-01-08T06:08:05;3.30;;;2.23;;
12681;SDS011;6405;59.208;18.216;2023-01-08T06:10:31;6.37;;;2.83;;
12681;SDS011;6405;59.208;18.216;2023-01-08T06:12:58;5.60;;;2.30;;
12681;SDS011;6405;59.208;18.216;2023-01-08T06:15:25;5.93;;;3.13;;
12681;SDS011;6405;59.208;18.216;2023-01-08T06:17:51;8.30;;;2.97;;
12681;SDS011;6405;59.208;18.216;2023-01-08T06:20:18;5.27;;;2.80;;
12681;SDS011;6405;59.208;18.216;2023-01-08T06:22:45;7.60;;;3.80;;
12681;SDS011;6405;59.208;18.216;2023-01-08T06:25:13;5.03;;;3.20;;
12681;SDS011;6405;59.208;18.216;2023-01-08T06:27:41;6.27;;;3.57;;
12681;SDS011;6405;59.208;18.216;2023-01-08T06:30:08;6.33;;;3.30;;
12681;SDS011;6405;59.208;18.216;2023-01-08T06:32:34;5.97;;;2.27;;
12681;SDS011;6405;59.208;18.216;2023-01-08T06:35:01;5.97;;;3.70;;
12681;SDS011;6405;59.208;18.216;2023-01-08T06:37:28;57.20;;;7.20;;
12681;SDS011;6405;59.208;18.216;2023-01-08T06:39:56;63.83;;;8.33;;
12681;SDS011;6405;59.208;18.216;2023-01-08T06:42:24;15.73;;;5.00;;
12681;SDS011;6405;59.208;18.216;2023-01-08T06:44:51;5.53;;;3.20;;
12681;SDS011;6405;59.208;18.216;2023-01-08T06:47:18;6.33;;;3.57;;
12681;SDS011;6405;59.208;18.216;2023-01-08T06:49:46;5.60;;;3.20;;
12681;SDS011;6405;59.208;18.216;2023-01-08T06:52:12;5.20;;;3.30;;
12681;SDS011;6405;59.208;18.216;2023-01-08T06:54:38;5.90;;;3.67;;
12681;SDS011;6405;59.208;18.216;2023-01-08T06:57:05;40.93;;;5.73;;
12681;SDS011;6405;59.208;18.216;2023-01-08T06:59:33;20.47;;;5.53;;
12681;SDS011;6405;59.208;18.216;2023-01-08T07:02:00;14.97;;;4.33;;
12681;SDS011;6405;59.208;18.216;2023-01-08T07:04:28;6.03;;;3.53;;
12681;SDS011;6405;59.208;18.216;2023-01-08T07:06:54;23.00;;;4.60;;
12681;SDS011;6405;59.208;18.216;2023-01-08T07:09:22;5.73;;;3.53;;
12681;SDS011;6405;59.208;18.216;2023-01-08T07:11:50;19.03;;;4.60;;
12681;SDS011;6405;59.208;18.216;2023-01-08T07:14:17;19.57;;;4.57;;
12681;SDS011;6405;59.208;18.216;2023-01-08T07:16:43;5.97;;;3.67;;
12681;SDS011;6405;59.208;18.216;2023-01-08T07:19:11;7.17;;;4.23;;
12681;SDS011;6405;59.208;18.216;2023-01-08T07:21:38;7.17;;;4.33;;
12681;SDS011;6405;59.208;18.216;2023-01-08T07:24:03;6.77;;;4.07;;
12681;SDS011;6405;59.208;18.216;2023-01-08T07:26:31;9.03;;;5.00;;
12681;SDS011;6405;59.208;18.216;2023-01-08T07:28:59;19.70;;;6.70;;
12681;SDS011;6405;59.208;18.216;2023-01-08T07:31:27;29.77;;;6.77;;
12681;SDS011;6405;59.208;18.216;2023-01-08T07:33:54;48.97;;;8.97;;
12681;SDS011;6405;59.208;18.216;2023-01-08T07:36:21;18.07;;;6.37;;
12681;SDS011;6405;59.208;18.216;2023-01-08T07:38:49;54.10;;;8.73;;
12681;SDS011;6405;59.208;18.216;2023-01-08T07:41:17;10.23;;;5.60;;
12681;SDS011;6405;59.208;18.216;2023-01-08T07:43:45;19.10;;;6.30;;
12681;SDS011;6405;59.208;18.216;2023-01-08T07:46:13;14.90;;;5.90;;
12681;SDS011;6405;59.208;18.216;2023-01-08T07:48:39;26.63;;;7.20;;
12681;SDS011;6405;59.208;18.216;2023-01-08T07:51:07;16.33;;;7.23;;
12681;SDS011;6405;59.208;18.216;2023-01-08T07:53:34;21.57;;;8.60;;
12681;SDS011;6405;59.208;18.216;2023-01-08T07:56:08;19.97;;;8.83;;
12681;SDS011;6405;59.208;18.216;2023-01-08T07:58:37;28.13;;;8.37;;
12681;SDS011;6405;59.208;18.216;2023-01-08T08:01:06;24.77;;;8.93;;
12681;SDS011;6405;59.208;18.216;2023-01-08T08:03:36;38.83;;;8.97;;
12681;SDS011;6405;59.208;18.216;2023-01-08T08:06:03;19.37;;;8.60;;
12681;SDS011;6405;59.208;18.216;2023-01-08T08:08:29;22.23;;;7.70;;
12681;SDS011;6405;59.208;18.216;2023-01-08T08:10:57;15.70;;;6.67;;
12681;SDS011;6405;59.208;18.216;2023-01-08T08:13:24;61.60;;;10.23;;
12681;SDS011;6405;59.208;18.216;2023-01-08T08:15:52;32.93;;;8.83;;
12681;SDS011;6405;59.208;18.216;2023-01-08T08:18:19;25.50;;;7.00;;
12681;SDS011;6405;59.208;18.216;2023-01-08T08:20:46;70.37;;;11.47;;
12681;SDS011;6405;59.208;18.216;2023-01-08T08:23:18;8.87;;;4.63;;
12681;SDS011;6405;59.208;18.216;2023-01-08T08:25:45;24.77;;;6.83;;
12681;SDS011;6405;59.208;18.216;2023-01-08T08:28:13;29.97;;;6.83;;
12681;SDS011;6405;59.208;18.216;2023-01-08T08:30:40;8.13;;;5.00;;
12681;SDS011;6405;59.208;18.216;2023-01-08T08:33:08;14.80;;;4.83;;
12681;SDS011;6405;59.208;18.216;2023-01-08T08:35:35;9.87;;;3.80;;
12681;SDS011;6405;59.208;18.216;2023-01-08T08:38:03;34.30;;;6.50;;
12681;SDS011;6405;59.208;18.216;2023-01-08T08:40:31;6.07;;;2.77;;
12681;SDS011;6405;59.208;18.216;2023-01-08T08:43:00;17.23;;;3.53;;
12681;SDS011;6405;59.208;18.216;2023-01-08T08:45:30;6.63;;;3.20;;
12681;SDS011;6405;59.208;18.216;2023-01-08T08:47:59;22.53;;;3.97;;
12681;SDS011;6405;59.208;18.216;2023-01-08T08:50:26;18.03;;;5.53;;
12681;SDS011;6405;59.208;18.216;2023-01-08T08:52:57;18.43;;;6.40;;
12681;SDS011;6405;59.208;18.216;2023-01-08T08:55:26;51.27;;;9.37;;
12681;SDS011;6405;59.208;18.216;2023-01-08T08:58:00;41.70;;;10.60;;
12681;SDS011;6405;59.208;18.216;2023-01-08T09:00:30;51.30;;;11.43;;
12681;SDS011;6405;59.208;18.216;2023-01-08T09:02:57;111.50;;;17.83;;
12681;SDS011;6405;59.208;18.216;2023-01-08T09:05:24;65.60;;;14.33;;
12681;SDS011;6405;59.208;18.216;2023-01-08T09:07:52;100.13;;;16.77;;
12681;SDS011;6405;59.208;18.216;2023-01-08T09:10:21;124.63;;;16.10;;
12681;SDS011;6405;59.208;18.216;2023-01-08T09:12:49;114.37;;;18.27;;
12681;SDS011;6405;59.208;18.216;2023-01-08T09:15:18;333.20;;;33.43;;
12681;SDS011;6405;59.208;18.216;2023-01-08T09:17:51;199.73;;;24.47;;
12681;SDS011;6405;59.208;18.216;2023-01-08T09:20:19;207.10;;;28.47;;
12681;SDS011;6405;59.208;18.216;2023-01-08T09:22:47;74.10;;;13.80;;
12681;SDS011;6405;59.208;18.216;2023-01-08T09:25:16;73.87;;;16.93;;
12681;SDS011;6405;59.208;18.216;2023-01-08T09:27:43;181.23;;;23.50;;
12681;SDS011;6405;59.208;18.216;2023-01-08T09:30:11;73.77;;;16.77;;
12681;SDS011;6405;59.208;18.216;2023-01-08T09:32:38;140.13;;;20.83;;
12681;SDS011;6405;59.208;18.216;2023-01-08T09:35:08;186.33;;;26.63;;
12681;SDS011;6405;59.208;18.216;2023-01-08T09:37:36;347.27;;;38.53;;
12681;SDS011;6405;59.208;18.216;2023-01-08T09:40:03;213.97;;;28.97;;
12681;SDS011;6405;59.208;18.216;2023-01-08T09:42:30;196.53;;;24.67;;
12681;SDS011;6405;59.208;18.216;2023-01-08T09:44:58;244.97;;;34.57;;
12681;SDS011;6405;59.208;18.216;2023-01-08T09:47:28;167.90;;;22.27;;
12681;SDS011;6405;59.208;18.216;2023-01-08T09:50:04;143.13;;;18.53;;
12681;SDS011;6405;59.208;18.216;2023-01-08T09:52:35;205.67;;;23.93;;
12681;SDS011;6405;59.208;18.216;2023-01-08T09:55:13;186.93;;;28.27;;
12681;SDS011;6405;59.208;18.216;2023-01-08T09:57:42;155.77;;;21.60;;
12681;SDS011;6405;59.208;18.216;2023-01-08T10:00:15;256.17;;;29.43;;
12681;SDS011;6405;59.208;18.216;2023-01-08T10:02:47;221.70;;;27.53;;
12681;SDS011;6405;59.208;18.216;2023-01-08T10:05:16;168.57;;;24.07;;
12681;SDS011;6405;59.208;18.216;2023-01-08T10:07:44;153.83;;;25.30;;
12681;SDS011;6405;59.208;18.216;2023-01-08T10:10:19;178.93;;;25.30;;
12681;SDS011;6405;59.208;18.216;2023-01-08T10:12:48;307.57;;;35.00;;
12681;SDS011;6405;59.208;18.216;2023-01-08T10:15:17;99.30;;;18.07;;
12681;SDS011;6405;59.208;18.216;2023-01-08T10:17:48;208.13;;;26.80;;
12681;SDS011;6405;59.208;18.216;2023-01-08T10:20:21;229.47;;;27.00;;
12681;SDS011;6405;59.208;18.216;2023-01-08T10:22:51;221.37;;;28.90;;
12681;SDS011;6405;59.208;18.216;2023-01-08T10:25:24;309.50;;;38.53;;
12681;SDS011;6405;59.208;18.216;2023-01-08T10:27:58;307.70;;;33.23;;
12681;SDS011;6405;59.208;18.216;2023-01-08T10:33:01;357.43;;;39.13;;
12681;SDS011;6405;59.208;18.216;2023-01-08T10:35:34;288.37;;;32.97;;
12681;SDS011;6405;59.208;18.216;2023-01-08T10:38:04;272.37;;;32.93;;
12681;SDS011;6405;59.208;18.216;2023-01-08T10:43:23;303.37;;;33.00;;
12681;SDS011;6405;59.208;18.216;2023-01-08T10:45:55;110.50;;;23.10;;
12681;SDS011;6405;59.208;18.216;2023-01-08T10:51:26;252.53;;;31.07;;
12681;SDS011;6405;59.208;18.216;2023-01-08T10:53:55;284.80;;;33.87;;
12681;SDS011;6405;59.208;18.216;2023-01-08T10:56:29;106.10;;;23.00;;
12681;SDS011;6405;59.208;18.216;2023-01-08T10:59:05;178.23;;;27.03;;
12681;SDS011;6405;59.208;18.216;2023-01-08T11:01:48;231.93;;;30.27;;
12681;SDS011;6405;59.208;18.216;2023-01-08T11:04:21;282.17;;;33.87;;
12681;SDS011;6405;59.208;18.216;2023-01-08T11:06:54;231.40;;;28.63;;
12681;SDS011;6405;59.208;18.216;2023-01-08T11:09:26;268.50;;;33.93;;
12681;SDS011;6405;59.208;18.216;2023-01-08T11:11:56;156.40;;;28.10;;
12681;SDS011;6405;59.208;18.216;2023-01-08T11:14:26;259.20;;;33.80;;
12681;SDS011;6405;59.208;18.216;2023-01-08T11:17:00;237.33;;;29.90;;
12681;SDS011;6405;59.208;18.216;2023-01-08T11:19:35;156.87;;;25.90;;
12681;SDS011;6405;59.208;18.216;2023-01-08T11:22:05;231.40;;;36.17;;
12681;SDS011;6405;59.208;18.216;2023-01-08T11:24:51;141.97;;;25.37;;
12681;SDS011;6405;59.208;18.216;2023-01-08T11:27:22;209.30;;;29.33;;
12681;SDS011;6405;59.208;18.216;2023-01-08T11:35:18;201.57;;;28.83;;
12681;SDS011;6405;59.208;18.216;2023-01-08T11:37:54;158.63;;;30.07;;
12681;SDS011;6405;59.208;18.216;2023-01-08T12:09:25;118.07;;;27.77;;
12681;SDS011;6405;59.208;18.216;2023-01-08T12:12:12;238.30;;;33.97;;
12681;SDS011;6405;59.208;18.216;2023-01-08T12:14:47;282.87;;;38.20;;
12681;SDS011;6405;59.208;18.216;2023-01-08T12:20:29;210.07;;;30.13;;
12681;SDS011;6405;59.208;18.216;2023-01-08T12:23:14;97.47;;;20.30;;
12681;SDS011;6405;59.208;18.216;2023-01-08T12:29:15;101.10;;;23.60;;
12681;SDS011;6405;59.208;18.216;2023-01-08T12:34:50;242.03;;;32.40;;
12681;SDS011;6405;59.208;18.216;2023-01-08T12:37:43;150.77;;;24.53;;
12681;SDS011;6405;59.208;18.216;2023-01-08T12:40:20;97.83;;;22.73;;
12681;SDS011;6405;59.208;18.216;2023-01-08T12:42:58;133.37;;;26.70;;
12681;SDS011;6405;59.208;18.216;2023-01-08T12:45:33;88.73;;;20.17;;
12681;SDS011;6405;59.208;18.216;2023-01-08T12:48:10;120.10;;;26.73;;
12681;SDS011;6405;59.208;18.216;2023-01-08T12:50:56;64.67;;;20.40;;
12681;SDS011;6405;59.208;18.216;2023-01-08T12:53:55;61.17;;;18.30;;
12681;SDS011;6405;59.208;18.216;2023-01-08T12:57:08;86.83;;;21.97;;
12681;SDS011;6405;59.208;18.216;2023-01-08T12:59:59;157.10;;;28.57;;
12681;SDS011;6405;59.208;18.216;2023-01-08T13:02:37;74.57;;;23.43;;
12681;SDS011;6405;59.208;18.216;2023-01-08T13:07:51;97.33;;;26.20;;
12681;SDS011;6405;59.208;18.216;2023-01-08T13:12:58;84.03;;;23.70;;
12681;SDS011;6405;59.208;18.216;2023-01-08T13:15:28;80.10;;;24.93;;
12681;SDS011;6405;59.208;18.216;2023-01-08T13:18:01;133.60;;;27.00;;
12681;SDS011;6405;59.208;18.216;2023-01-08T13:20:42;142.00;;;29.37;;
12681;SDS011;6405;59.208;18.216;2023-01-08T13:23:21;73.40;;;25.90;;
12681;SDS011;6405;59.208;18.216;2023-01-08T13:25:55;90.37;;;25.73;;
12681;SDS011;6405;59.208;18.216;2023-01-08T13:31:46;59.90;;;21.17;;
12681;SDS011;6405;59.208;18.216;2023-01-08T13:33:55;82.60;;;27.40;;
12681;SDS011;6405;59.208;18.216;2023-01-08T13:36:27;68.80;;;25.37;;
12681;SDS011;6405;59.208;18.216;2023-01-08T13:41:30;129.07;;;32.70;;
12681;SDS011;6405;59.208;18.216;2023-01-08T13:44:00;79.00;;;28.37;;
12681;SDS011;6405;59.208;18.216;2023-01-08T13:46:35;84.13;;;28.33;;
12681;SDS011;6405;59.208;18.216;2023-01-08T13:49:07;91.40;;;26.37;;
12681;SDS011;6405;59.208;18.216;2023-01-08T13:51:46;80.90;;;28.40;;
12681;SDS011;6405;59.208;18.216;2023-01-08T13:56:40;80.30;;;28.53;;
12681;SDS011;6405;59.208;18.216;2023-01-08T14:02:02;85.17;;;29.23;;
12681;SDS011;6405;59.208;18.216;2023-01-08T14:04:30;75.97;;;28.37;;
12681;SDS011;6405;59.208;18.216;2023-01-08T14:07:11;75.77;;;24.87;;
12681;SDS011;6405;59.208;18.216;2023-01-08T14:09:38;80.70;;;28.50;;
12681;SDS011;6405;59.208;18.216;2023-01-08T14:12:07;78.63;;;30.90;;
12681;SDS011;6405;59.208;18.216;2023-01-08T14:14:41;91.60;;;31.33;;
12681;SDS011;6405;59.208;18.216;2023-01-08T14:17:16;85.17;;;30.20;;
12681;SDS011;6405;59.208;18.216;2023-01-08T14:19:47;86.93;;;29.93;;
12681;SDS011;6405;59.208;18.216;2023-01-08T14:22:21;64.97;;;24.43;;
12681;SDS011;6405;59.208;18.216;2023-01-08T14:24:55;167.53;;;32.93;;
12681;SDS011;6405;59.208;18.216;2023-01-08T14:27:27;73.00;;;27.57;;
12681;SDS011;6405;59.208;18.216;2023-01-08T14:29:56;64.37;;;27.63;;
12681;SDS011;6405;59.208;18.216;2023-01-08T14:32:24;77.57;;;28.10;;
12681;SDS011;6405;59.208;18.216;2023-01-08T14:34:56;82.13;;;26.70;;
12681;SDS011;6405;59.208;18.216;2023-01-08T14:37:27;65.23;;;24.60;;
12681;SDS011;6405;59.208;18.216;2023-01-08T14:39:54;48.57;;;19.43;;
12681;SDS011;6405;59.208;18.216;2023-01-08T14:42:32;119.97;;;31.33;;
12681;SDS011;6405;59.208;18.216;2023-01-08T14:45:26;94.73;;;27.90;;
12681;SDS011;6405;59.208;18.216;2023-01-08T14:47:57;54.80;;;22.13;;
12681;SDS011;6405;59.208;18.216;2023-01-08T14:50:40;64.33;;;24.40;;
12681;SDS011;6405;59.208;18.216;2023-01-08T14:53:16;326.77;;;43.73;;
12681;SDS011;6405;59.208;18.216;2023-01-08T14:55:51;57.10;;;22.13;;
12681;SDS011;6405;59.208;18.216;2023-01-08T14:58:23;73.67;;;24.50;;
12681;SDS011;6405;59.208;18.216;2023-01-08T15:00:55;56.27;;;22.77;;
12681;SDS011;6405;59.208;18.216;2023-01-08T15:03:27;50.50;;;22.33;;
12681;SDS011;6405;59.208;18.216;2023-01-08T15:05:55;100.10;;;25.23;;
12681;SDS011;6405;59.208;18.216;2023-01-08T15:13:45;54.10;;;22.13;;
12681;SDS011;6405;59.208;18.216;2023-01-08T15:16:19;124.07;;;24.83;;
12681;SDS011;6405;59.208;18.216;2023-01-08T15:19:03;47.70;;;18.47;;
12681;SDS011;6405;59.208;18.216;2023-01-08T15:21:33;47.13;;;18.07;;
12681;SDS011;6405;59.208;18.216;2023-01-08T15:24:00;227.50;;;36.33;;
12681;SDS011;6405;59.208;18.216;2023-01-08T15:26:29;71.20;;;20.17;;
12681;SDS011;6405;59.208;18.216;2023-01-08T15:29:04;56.40;;;21.70;;
12681;SDS011;6405;59.208;18.216;2023-01-08T15:34:06;56.40;;;22.50;;
12681;SDS011;6405;59.208;18.216;2023-01-08T15:36:36;68.37;;;23.93;;
12681;SDS011;6405;59.208;18.216;2023-01-08T15:39:04;118.83;;;27.33;;
12681;SDS011;6405;59.208;18.216;2023-01-08T15:41:35;107.40;;;25.87;;
12681;SDS011;6405;59.208;18.216;2023-01-08T15:44:23;47.47;;;18.60;;
12681;SDS011;6405;59.208;18.216;2023-01-08T15:46:51;54.10;;;20.47;;
12681;SDS011;6405;59.208;18.216;2023-01-08T15:49:19;53.00;;;20.43;;
12681;SDS011;6405;59.208;18.216;2023-01-08T15:51:48;63.90;;;18.93;;
12681;SDS011;6405;59.208;18.216;2023-01-08T15:54:18;31.10;;;15.13;;
12681;SDS011;6405;59.208;18.216;2023-01-08T15:56:49;45.90;;;18.03;;
12681;SDS011;6405;59.208;18.216;2023-01-08T15:59:16;54.57;;;19.40;;
12681;SDS011;6405;59.208;18.216;2023-01-08T16:01:44;173.97;;;30.83;;
12681;SDS011;6405;59.208;18.216;2023-01-08T16:04:12;77.87;;;19.83;;
12681;SDS011;6405;59.208;18.216;2023-01-08T16:06:39;48.17;;;19.80;;
12681;SDS011;6405;59.208;18.216;2023-01-08T16:09:07;42.00;;;17.50;;
12681;SDS011;6405;59.208;18.216;2023-01-08T16:11:34;59.63;;;22.37;;
12681;SDS011;6405;59.208;18.216;2023-01-08T16:14:02;45.87;;;18.47;;
12681;SDS011;6405;59.208;18.216;2023-01-08T16:16:29;61.20;;;22.87;;
12681;SDS011;6405;59.208;18.216;2023-01-08T16:18:57;124.23;;;26.03;;
12681;SDS011;6405;59.208;18.216;2023-01-08T16:21:27;66.93;;;24.80;;